createdAt,value
2023-02-02T00:00:30.352Z,99632.52
2023-02-02T00:04:21.237Z,99629.88
2023-02-02T00:07:48.342Z,99633.41
2023-02-02T00:11:16.078Z,99631.94
2023-02-02T00:14:43.215Z,99629.97
2023-02-02T00:18:10.515Z,99629.09
2023-02-02T00:21:38.885Z,99624.88
2023-02-02T00:25:06.899Z,99627.29
2023-02-02T00:28:34.139Z,99623.45
2023-02-02T00:32:01.191Z,99621.36
2023-02-02T00:35:29.040Z,99618.60
2023-02-02T00:38:56.082Z,99613.83
2023-02-02T00:42:23.878Z,99610.37
2023-02-02T00:45:51.470Z,99604.50
2023-02-02T00:49:18.722Z,99606.86
2023-02-02T00:52:46.073Z,99603.19
2023-02-02T00:56:13.313Z,99601.11
2023-02-02T00:59:40.554Z,99596.03
2023-02-02T01:03:08.078Z,99591.70
2023-02-02T01:06:35.648Z,99594.25
2023-02-02T01:10:02.780Z,99590.61
2023-02-02T01:13:30.302Z,99580.91
2023-02-02T01:16:57.419Z,99577.64
2023-02-02T01:20:26.745Z,99572.97
2023-02-02T01:23:54.010Z,99566.77
2023-02-02T01:27:21.215Z,99560.90
2023-02-02T01:30:48.947Z,99557.45
2023-02-02T01:34:15.968Z,99552.77
2023-02-02T01:37:43.058Z,99550.14
2023-02-02T01:41:13.355Z,99545.16
2023-02-02T01:45:06.800Z,99542.37
2023-02-02T01:48:37.189Z,99532.35
2023-02-02T01:52:02.767Z,99531.32
2023-02-02T01:55:32.477Z,99527.70
2023-02-02T01:59:01.225Z,99518.92
2023-02-02T02:02:31.162Z,99506.38
2023-02-02T02:06:02.446Z,99508.14
2023-02-02T02:09:30.117Z,99500.90
2023-02-02T02:12:58.901Z,99492.33
2023-02-02T02:16:37.276Z,99481.50
2023-02-02T02:21:16.484Z,99482.11
2023-02-02T02:25:30.957Z,99468.70
2023-02-02T02:29:15.009Z,99463.73
2023-02-02T02:32:47.602Z,99463.05
2023-02-02T02:36:22.012Z,99461.83
2023-02-02T02:39:57.094Z,99449.02
2023-02-02T02:43:32.583Z,99437.71
2023-02-02T02:47:00.398Z,99426.42
2023-02-02T02:50:28.195Z,99426.52
2023-02-02T02:53:56.733Z,99418.38
2023-02-02T02:57:42.848Z,99412.25
2023-02-02T03:01:19.042Z,99407.92
2023-02-02T03:04:52.817Z,99388.20
2023-02-02T03:08:28.636Z,99388.48
2023-02-02T03:11:56.549Z,99370.29
2023-02-02T03:15:23.988Z,99365.22
2023-02-02T03:18:51.892Z,99360.65
2023-02-02T03:22:18.878Z,99348.33
2023-02-02T03:25:46.434Z,99348.22
2023-02-02T03:29:13.765Z,99351.70
2023-02-02T03:32:41.618Z,99338.61
2023-02-02T03:36:10.155Z,99331.63
2023-02-02T03:39:37.327Z,99335.67
2023-02-02T03:43:04.567Z,99335.15
2023-02-02T03:46:31.912Z,99323.96
2023-02-02T03:49:59.176Z,99326.61
2023-02-02T03:53:26.904Z,99330.08
2023-02-02T03:56:57.052Z,99329.74
2023-02-02T04:00:24.811Z,99335.98
2023-02-02T04:03:54.190Z,99336.49
2023-02-02T04:07:21.319Z,99332.05
2023-02-02T04:10:48.602Z,99343.35
2023-02-02T04:14:15.728Z,99346.30
2023-02-02T04:17:43.125Z,99355.48
2023-02-02T04:21:11.205Z,99348.10
2023-02-02T04:24:38.254Z,99359.73
2023-02-02T04:28:06.023Z,99359.27
2023-02-02T04:31:33.346Z,99360.54
2023-02-02T04:35:00.657Z,99367.46
2023-02-02T04:38:27.791Z,99367.62
2023-02-02T04:41:54.953Z,99373.17
2023-02-02T04:45:22.658Z,99376.44
2023-02-02T04:48:50.755Z,99387.35
2023-02-02T04:52:17.888Z,99399.45
2023-02-02T04:55:44.876Z,99405.55
2023-02-02T04:59:12.198Z,99409.27
2023-02-02T05:02:40.747Z,99414.54
2023-02-02T05:06:08.822Z,99419.56
2023-02-02T05:09:36.010Z,99438.73
2023-02-02T05:13:03.054Z,99444.09
2023-02-02T05:16:30.329Z,99450.29
2023-02-02T05:19:57.441Z,99460.60
2023-02-02T05:23:24.629Z,99466.80
2023-02-02T05:26:52.920Z,99472.52
2023-02-02T05:30:20.747Z,99478.88
2023-02-02T05:33:48.058Z,99486.82
2023-02-02T05:37:15.254Z,99495.64
2023-02-02T05:40:42.438Z,99503.43
2023-02-02T05:44:19.657Z,99511.09
2023-02-02T05:47:46.764Z,99522.17
2023-02-02T05:51:21.132Z,99527.86
2023-02-02T05:54:48.383Z,99534.77
2023-02-02T05:58:15.558Z,99543.55
2023-02-02T06:01:42.726Z,99550.42
2023-02-02T06:05:11.029Z,99562.11
2023-02-02T06:08:38.249Z,99565.52
2023-02-02T06:12:06.024Z,99577.55
2023-02-02T06:15:34.880Z,99591.00
2023-02-02T06:19:02.027Z,99601.44
2023-02-02T06:22:30.412Z,99609.30
2023-02-02T06:25:57.735Z,99620.30
2023-02-02T06:29:25.404Z,99633.00
2023-02-02T06:32:52.657Z,99632.10
2023-02-02T06:36:19.913Z,99642.43
2023-02-02T06:39:47.613Z,99642.25
2023-02-02T06:43:16.448Z,99654.48
2023-02-02T06:46:46.963Z,99664.77
2023-02-02T06:50:15.034Z,99674.07
2023-02-02T06:53:44.574Z,99686.80
2023-02-02T06:57:11.627Z,99698.33
2023-02-02T07:00:38.801Z,99705.89
2023-02-02T07:04:06.263Z,99715.55
2023-02-02T07:07:36.175Z,99721.94
2023-02-02T07:11:11.078Z,99738.21
2023-02-02T07:14:42.907Z,99748.30
2023-02-02T07:18:10.251Z,99748.38
2023-02-02T07:21:37.453Z,99756.94
2023-02-02T07:25:04.662Z,99767.42
2023-02-02T07:28:32.099Z,99771.89
2023-02-02T07:31:59.222Z,99780.05
2023-02-02T07:35:26.777Z,99783.33
2023-02-02T07:38:55.637Z,99797.02
2023-02-02T07:42:22.687Z,99796.29
2023-02-02T07:45:50.318Z,99803.33
2023-02-02T07:49:20.007Z,99814.90
2023-02-02T07:52:45.495Z,99828.81
2023-02-02T07:56:15.392Z,99845.85
2023-02-02T07:59:42.403Z,99854.34
2023-02-02T08:03:11.705Z,99869.67
2023-02-02T08:06:41.227Z,99878.04
2023-02-02T08:10:13.068Z,99881.34
2023-02-02T08:13:40.826Z,99890.11
2023-02-02T08:17:08.130Z,99885.46
2023-02-02T08:20:35.761Z,99896.61
2023-02-02T08:24:04.728Z,99907.81
2023-02-02T08:27:31.932Z,99908.34
2023-02-02T08:31:04.738Z,99914.69
2023-02-02T08:34:35.162Z,99926.89
2023-02-02T08:38:05.528Z,99931.02
2023-02-02T08:41:33.028Z,99949.52
2023-02-02T08:46:12.725Z,99962.22
2023-02-02T08:48:47.751Z,99974.33
2023-02-02T08:52:14.981Z,99975.48
2023-02-02T08:55:42.142Z,99980.72
2023-02-02T08:59:09.407Z,99986.23
2023-02-02T09:02:36.905Z,99999.53
2023-02-02T09:06:09.742Z,99995.54
2023-02-02T09:09:36.845Z,100011.68
2023-02-02T09:13:04.114Z,100019.48
2023-02-02T09:16:31.475Z,100033.65
2023-02-02T09:19:58.569Z,100038.63
2023-02-02T09:23:26.034Z,100046.62
2023-02-02T09:26:53.461Z,100058.21
2023-02-02T09:30:21.496Z,100059.29
2023-02-02T09:33:49.269Z,100070.21
2023-02-02T09:37:16.676Z,100069.66
2023-02-02T09:40:44.631Z,100078.51
2023-02-02T09:44:22.199Z,100083.26
2023-02-02T09:48:12.441Z,100088.08
2023-02-02T09:51:45.449Z,100098.10
2023-02-02T09:55:22.813Z,100099.17
2023-02-02T09:58:54.727Z,100106.05
2023-02-02T10:02:25.890Z,100118.46
2023-02-02T10:05:59.133Z,100115.26
2023-02-02T10:09:39.468Z,100123.14
2023-02-02T10:13:14.013Z,100136.42
2023-02-02T10:16:42.701Z,100142.08
2023-02-02T10:20:35.118Z,100140.48
2023-02-02T10:24:04.686Z,100150.12
2023-02-02T10:27:36.539Z,100155.58
2023-02-02T10:31:04.784Z,100159.11
2023-02-02T10:34:39.495Z,100163.45
2023-02-02T10:38:14.234Z,100167.38
2023-02-02T10:41:54.282Z,100172.06
2023-02-02T10:45:22.427Z,100175.65
2023-02-02T10:48:52.947Z,100183.86
2023-02-02T10:52:23.849Z,100199.23
2023-02-02T10:55:55.936Z,100201.85
2023-02-02T10:59:28.578Z,100210.75
2023-02-02T11:02:56.400Z,100216.83
2023-02-02T11:06:41.879Z,100222.95
2023-02-02T11:10:10.258Z,100223.52
2023-02-02T11:13:43.413Z,100232.09
2023-02-02T11:17:22.517Z,100236.48
2023-02-02T11:20:49.705Z,100241.25
2023-02-02T11:24:27.897Z,100246.60
2023-02-02T11:27:55.495Z,100252.83
2023-02-02T11:31:39.385Z,100253.29
2023-02-02T11:35:24.965Z,100263.84
2023-02-02T11:39:12.331Z,100270.36
2023-02-02T11:42:45.524Z,100283.48
2023-02-02T11:46:21.488Z,100283.46
2023-02-02T11:49:51.760Z,100288.68
2023-02-02T11:53:28.501Z,100294.92
2023-02-02T11:56:58.856Z,100306.38
2023-02-02T12:00:28.770Z,100307.05
2023-02-02T12:03:57.711Z,100312.45
2023-02-02T12:07:29.615Z,100327.33
2023-02-02T12:11:02.232Z,100341.30
2023-02-02T12:14:39.996Z,100341.20
2023-02-02T12:18:18.400Z,100355.77
2023-02-02T12:21:55.035Z,100358.27
2023-02-02T12:25:39.273Z,100347.95
2023-02-02T12:29:25.976Z,100350.27
2023-02-02T12:33:07.652Z,100349.66
2023-02-02T12:36:50.978Z,100348.10
2023-02-02T12:40:31.265Z,100350.41
2023-02-02T12:44:08.514Z,100354.45
2023-02-02T12:47:43.342Z,100350.70
2023-02-02T12:51:24.922Z,100351.48
2023-02-02T12:55:05.781Z,100356.02
2023-02-02T12:58:41.437Z,100356.85
2023-02-02T13:02:20.401Z,100366.02
2023-02-02T13:06:03.824Z,100371.83
2023-02-02T13:09:36.983Z,100381.45
2023-02-02T13:13:09.619Z,100384.66
2023-02-02T13:16:41.178Z,100396.37
2023-02-02T13:20:17.771Z,100399.08
2023-02-02T13:23:50.482Z,100403.60
2023-02-02T13:27:21.522Z,100407.03
2023-02-02T13:30:52.081Z,100412.27
2023-02-02T13:34:22.979Z,100423.27
2023-02-02T13:37:55.580Z,100427.69
2023-02-02T13:41:24.386Z,100443.11
2023-02-02T13:44:56.646Z,100452.41
2023-02-02T13:48:33.044Z,100465.91
2023-02-02T13:52:13.721Z,100466.90
2023-02-02T13:56:14.361Z,100483.99
2023-02-02T14:00:01.934Z,100493.34
2023-02-02T14:03:40.569Z,100494.79
2023-02-02T14:07:10.909Z,100497.92
2023-02-02T14:10:41.183Z,100510.08
2023-02-02T14:14:33.025Z,100516.02
2023-02-02T14:18:00.393Z,100528.59
2023-02-02T14:22:02.463Z,100541.24
2023-02-02T14:26:05.438Z,100550.42
2023-02-02T14:29:58.738Z,100560.50
2023-02-02T14:33:47.684Z,100568.81
2023-02-02T14:37:37.445Z,100577.45
2023-02-02T14:41:14.049Z,100589.92
2023-02-02T14:45:27.423Z,100591.69
2023-02-02T14:52:57.355Z,100609.85
2023-02-02T14:56:46.931Z,100633.67
2023-02-02T15:00:26.395Z,100636.12
2023-02-02T15:03:57.440Z,100640.27
2023-02-02T15:07:55.115Z,100655.79
2023-02-02T15:11:32.236Z,100675.19
2023-02-02T15:15:10.645Z,100689.47
2023-02-02T15:18:45.810Z,100705.84
2023-02-02T15:22:24.540Z,100708.88
2023-02-02T15:25:56.211Z,100715.84
2023-02-02T15:29:33.549Z,100718.40
2023-02-02T15:33:05.558Z,100727.05
2023-02-02T15:36:36.771Z,100735.74
2023-02-02T15:40:08.918Z,100740.02
2023-02-02T15:43:37.751Z,100749.86
2023-02-02T15:47:08.805Z,100753.37
2023-02-02T15:50:36.744Z,100764.75
2023-02-02T15:54:03.928Z,100772.32
2023-02-02T15:57:34.504Z,100784.83
2023-02-02T16:01:06.276Z,100796.03
2023-02-02T16:04:38.577Z,100813.35
2023-02-02T16:08:16.516Z,100830.85
2023-02-02T16:11:47.801Z,100837.23
2023-02-02T16:15:20.505Z,100845.63
2023-02-02T16:18:47.691Z,100852.09
2023-02-02T16:22:20.880Z,100862.84
2023-02-02T16:25:52.339Z,100867.34
2023-02-02T16:29:19.974Z,100872.27
2023-02-02T16:32:47.529Z,100879.57
2023-02-02T16:36:25.960Z,100888.45
2023-02-02T16:39:54.249Z,100898.35
2023-02-02T16:43:28.604Z,100908.40
2023-02-02T16:46:56.387Z,100904.75
2023-02-02T16:50:33.917Z,100910.59
2023-02-02T16:54:12.322Z,100921.55
2023-02-02T16:57:39.759Z,100934.34
2023-02-02T17:01:16.632Z,100946.63
2023-02-02T17:04:49.752Z,100955.13
2023-02-02T17:08:26.529Z,100960.17
2023-02-02T17:12:02.670Z,100971.63
2023-02-02T17:15:37.331Z,100978.16
2023-02-02T17:19:04.812Z,100987.96
2023-02-02T17:22:43.295Z,100998.20
2023-02-02T17:26:11.467Z,101012.94
2023-02-02T17:29:38.663Z,101027.30
2023-02-02T17:33:06.887Z,101038.55
2023-02-02T17:36:34.044Z,101051.85
2023-02-02T17:40:01.322Z,101054.59
2023-02-02T17:43:28.962Z,101067.55
2023-02-02T17:46:56.563Z,101080.70
2023-02-02T17:50:24.734Z,101089.88
2023-02-02T17:53:55.504Z,101097.02
2023-02-02T17:57:22.716Z,101107.46
2023-02-02T18:00:54.325Z,101114.95
2023-02-02T18:04:26.381Z,101118.44
2023-02-02T18:07:55.015Z,101121.66
2023-02-02T18:11:25.488Z,101126.83
2023-02-02T18:14:52.775Z,101133.02
2023-02-02T18:18:20.280Z,101135.41
2023-02-02T18:21:47.516Z,101138.54
2023-02-02T18:25:14.794Z,101137.20
2023-02-02T18:28:42.211Z,101145.59
2023-02-02T18:32:09.636Z,101150.64
2023-02-02T18:35:37.286Z,101154.63
2023-02-02T18:39:04.717Z,101161.45
2023-02-02T18:42:33.226Z,101163.16
2023-02-02T18:46:06.529Z,101167.52
2023-02-02T18:49:33.832Z,101176.84
2023-02-02T18:53:01.033Z,101182.84
2023-02-02T18:56:29.687Z,101179.34
2023-02-02T18:59:57.011Z,101184.52
2023-02-02T19:03:24.184Z,101185.01
2023-02-02T19:07:09.264Z,101189.14
2023-02-02T19:10:36.495Z,101196.70
2023-02-02T19:14:07.196Z,101201.77
2023-02-02T19:17:34.381Z,101195.14
2023-02-02T19:21:01.863Z,101199.67
2023-02-02T19:24:36.257Z,101216.94
2023-02-02T19:28:10.421Z,101214.28
2023-02-02T19:31:37.812Z,101214.19
2023-02-02T19:35:08.645Z,101225.58
2023-02-02T19:38:35.986Z,101231.09
2023-02-02T19:42:09.657Z,101229.10
2023-02-02T19:45:39.692Z,101235.66
2023-02-02T19:49:14.704Z,101245.09
2023-02-02T19:52:42.552Z,101252.33
2023-02-02T19:56:25.774Z,101253.86
2023-02-02T19:59:54.208Z,101254.06
2023-02-02T20:03:24.553Z,101257.30
2023-02-02T20:06:58.985Z,101255.98
2023-02-02T20:10:30.264Z,101258.08
2023-02-02T20:13:57.566Z,101260.85
2023-02-02T20:17:33.021Z,101265.29
2023-02-02T20:21:00.756Z,101273.78
2023-02-02T20:24:29.580Z,101277.65
2023-02-02T20:27:59.099Z,101283.52
2023-02-02T20:31:30.471Z,101298.04
2023-02-02T20:35:00.385Z,101294.36
2023-02-02T20:38:30.056Z,101292.54
2023-02-02T20:41:58.769Z,101297.91
2023-02-02T20:45:26.440Z,101296.93
2023-02-02T20:48:53.740Z,101299.52
2023-02-02T20:52:23.873Z,101305.15
2023-02-02T20:55:56.944Z,101311.50
2023-02-02T20:59:24.738Z,101320.98
2023-02-02T21:02:52.283Z,101320.02
2023-02-02T21:06:21.251Z,101327.92
2023-02-02T21:09:50.011Z,101329.13
2023-02-02T21:13:17.185Z,101328.10
2023-02-02T21:16:44.554Z,101330.02
2023-02-02T21:20:15.901Z,101326.66
2023-02-02T21:23:47.037Z,101327.48
2023-02-02T21:27:14.242Z,101325.35
2023-02-02T21:30:42.000Z,101328.91
2023-02-02T21:34:09.548Z,101321.97
2023-02-02T21:37:37.828Z,101322.94
2023-02-02T21:41:10.511Z,101326.85
2023-02-02T21:44:39.230Z,101324.54
2023-02-02T21:48:22.618Z,101320.67
2023-02-02T21:51:55.862Z,101322.73
2023-02-02T21:55:35.938Z,101317.75
2023-02-02T21:59:11.879Z,101316.67
2023-02-02T22:02:45.282Z,101316.52
2023-02-02T22:06:25.388Z,101320.98
2023-02-02T22:09:54.813Z,101324.23
2023-02-02T22:13:22.230Z,101326.89
2023-02-02T22:16:50.975Z,101329.13
2023-02-02T22:20:34.772Z,101326.83
2023-02-02T22:24:02.996Z,101321.73
2023-02-02T22:27:42.655Z,101321.11
2023-02-02T22:31:11.069Z,101320.29
2023-02-02T22:34:38.405Z,101323.15
2023-02-02T22:38:06.479Z,101329.06
2023-02-02T22:41:33.597Z,101332.90
2023-02-02T22:45:00.789Z,101339.48
2023-02-02T22:48:28.090Z,101343.89
2023-02-02T22:51:55.298Z,101352.75
2023-02-02T22:55:23.021Z,101361.18
2023-02-02T22:58:50.343Z,101361.71
2023-02-02T23:02:17.609Z,101360.11
2023-02-02T23:05:45.283Z,101364.23
2023-02-02T23:09:12.440Z,101361.54
2023-02-02T23:12:39.940Z,101364.17
2023-02-02T23:16:10.821Z,101366.58
2023-02-02T23:19:38.029Z,101361.92
2023-02-02T23:23:05.445Z,101352.71
2023-02-02T23:26:32.563Z,101348.21
2023-02-02T23:29:59.903Z,101345.33
2023-02-02T23:33:27.153Z,101349.06
2023-02-02T23:36:54.539Z,101345.54
2023-02-02T23:40:22.040Z,101348.04
2023-02-02T23:43:50.413Z,101346.70
2023-02-02T23:47:17.820Z,101343.19
2023-02-02T23:50:46.548Z,101344.66
2023-02-02T23:54:15.222Z,101344.40
2023-02-02T23:57:42.410Z,101342.14
